sensor_id;sensor_type;location;lat;lon;timestamp;P1;durP1;ratioP1;P2;durP2;ratioP2
12762;SDS011;6445;52.490;13.378;2024-01-30T00:00:50;12.05;;;7.15;;
12762;SDS011;6445;52.490;13.378;2024-01-30T00:03:15;13.10;;;7.50;;
12762;SDS011;6445;52.490;13.378;2024-01-30T00:05:41;16.75;;;7.78;;
12762;SDS011;6445;52.490;13.378;2024-01-30T00:08:06;12.18;;;7.43;;
12762;SDS011;6445;52.490;13.378;2024-01-30T00:10:31;11.25;;;7.13;;
12762;SDS011;6445;52.490;13.378;2024-01-30T00:12:56;12.60;;;7.15;;
12762;SDS011;6445;52.490;13.378;2024-01-30T00:15:22;12.27;;;7.38;;
12762;SDS011;6445;52.490;13.378;2024-01-30T00:17:47;11.75;;;7.43;;
12762;SDS011;6445;52.490;13.378;2024-01-30T00:20:13;12.65;;;7.70;;
12762;SDS011;6445;52.490;13.378;2024-01-30T00:22:38;10.48;;;7.03;;
12762;SDS011;6445;52.490;13.378;2024-01-30T00:25:03;10.50;;;7.28;;
12762;SDS011;6445;52.490;13.378;2024-01-30T00:27:29;13.30;;;6.85;;
12762;SDS011;6445;52.490;13.378;2024-01-30T00:29:54;14.13;;;7.40;;
12762;SDS011;6445;52.490;13.378;2024-01-30T00:32:19;12.35;;;7.55;;
12762;SDS011;6445;52.490;13.378;2024-01-30T00:34:45;14.70;;;6.68;;
12762;SDS011;6445;52.490;13.378;2024-01-30T00:37:10;11.75;;;7.53;;
12762;SDS011;6445;52.490;13.378;2024-01-30T00:39:35;11.27;;;6.47;;
12762;SDS011;6445;52.490;13.378;2024-01-30T00:42:01;9.75;;;6.60;;
12762;SDS011;6445;52.490;13.378;2024-01-30T00:44:26;10.90;;;6.95;;
12762;SDS011;6445;52.490;13.378;2024-01-30T00:46:51;11.50;;;7.28;;
12762;SDS011;6445;52.490;13.378;2024-01-30T00:49:16;11.88;;;6.97;;
12762;SDS011;6445;52.490;13.378;2024-01-30T00:51:42;10.65;;;7.00;;
12762;SDS011;6445;52.490;13.378;2024-01-30T00:54:07;14.63;;;7.20;;
12762;SDS011;6445;52.490;13.378;2024-01-30T00:56:33;14.35;;;7.13;;
12762;SDS011;6445;52.490;13.378;2024-01-30T00:58:58;13.43;;;7.13;;
12762;SDS011;6445;52.490;13.378;2024-01-30T01:01:23;11.57;;;7.43;;
12762;SDS011;6445;52.490;13.378;2024-01-30T01:03:48;14.13;;;7.53;;
12762;SDS011;6445;52.490;13.378;2024-01-30T01:06:14;11.38;;;6.93;;
12762;SDS011;6445;52.490;13.378;2024-01-30T01:08:39;12.57;;;7.57;;
12762;SDS011;6445;52.490;13.378;2024-01-30T01:11:04;10.55;;;7.05;;
12762;SDS011;6445;52.490;13.378;2024-01-30T01:13:29;13.07;;;7.57;;
12762;SDS011;6445;52.490;13.378;2024-01-30T01:15:55;13.02;;;7.28;;
12762;SDS011;6445;52.490;13.378;2024-01-30T01:18:20;11.70;;;7.82;;
12762;SDS011;6445;52.490;13.378;2024-01-30T01:20:45;14.55;;;7.22;;
12762;SDS011;6445;52.490;13.378;2024-01-30T01:23:10;13.43;;;7.00;;
12762;SDS011;6445;52.490;13.378;2024-01-30T01:25:36;11.90;;;7.20;;
12762;SDS011;6445;52.490;13.378;2024-01-30T01:28:01;14.02;;;7.20;;
12762;SDS011;6445;52.490;13.378;2024-01-30T01:30:26;12.73;;;6.70;;
12762;SDS011;6445;52.490;13.378;2024-01-30T01:32:53;13.10;;;7.30;;
12762;SDS011;6445;52.490;13.378;2024-01-30T01:35:22;13.73;;;7.30;;
12762;SDS011;6445;52.490;13.378;2024-01-30T01:37:49;12.65;;;7.15;;
12762;SDS011;6445;52.490;13.378;2024-01-30T01:40:19;13.05;;;7.97;;
12762;SDS011;6445;52.490;13.378;2024-01-30T01:42:49;14.75;;;7.63;;
12762;SDS011;6445;52.490;13.378;2024-01-30T01:45:15;13.82;;;7.43;;
12762;SDS011;6445;52.490;13.378;2024-01-30T01:47:40;12.90;;;7.22;;
12762;SDS011;6445;52.490;13.378;2024-01-30T01:50:06;11.48;;;7.38;;
12762;SDS011;6445;52.490;13.378;2024-01-30T01:52:32;16.35;;;7.25;;
12762;SDS011;6445;52.490;13.378;2024-01-30T01:54:57;11.65;;;7.45;;
12762;SDS011;6445;52.490;13.378;2024-01-30T01:57:23;10.07;;;7.20;;
12762;SDS011;6445;52.490;13.378;2024-01-30T01:59:48;14.30;;;7.03;;
12762;SDS011;6445;52.490;13.378;2024-01-30T02:02:13;10.98;;;6.88;;
12762;SDS011;6445;52.490;13.378;2024-01-30T02:04:41;13.70;;;7.15;;
12762;SDS011;6445;52.490;13.378;2024-01-30T02:07:06;11.00;;;6.97;;
12762;SDS011;6445;52.490;13.378;2024-01-30T02:09:32;13.15;;;7.35;;
12762;SDS011;6445;52.490;13.378;2024-01-30T02:11:57;12.05;;;6.95;;
12762;SDS011;6445;52.490;13.378;2024-01-30T02:14:22;10.95;;;7.00;;
12762;SDS011;6445;52.490;13.378;2024-01-30T02:16:48;12.93;;;7.57;;
12762;SDS011;6445;52.490;13.378;2024-01-30T02:19:13;9.80;;;6.82;;
12762;SDS011;6445;52.490;13.378;2024-01-30T02:21:38;13.23;;;7.45;;
12762;SDS011;6445;52.490;13.378;2024-01-30T02:24:04;12.63;;;7.18;;
12762;SDS011;6445;52.490;13.378;2024-01-30T02:26:30;10.48;;;7.18;;
12762;SDS011;6445;52.490;13.378;2024-01-30T02:28:55;14.63;;;7.22;;
12762;SDS011;6445;52.490;13.378;2024-01-30T02:31:20;14.50;;;7.80;;
12762;SDS011;6445;52.490;13.378;2024-01-30T02:33:46;11.30;;;6.82;;
12762;SDS011;6445;52.490;13.378;2024-01-30T02:36:11;10.50;;;7.00;;
12762;SDS011;6445;52.490;13.378;2024-01-30T02:38:36;10.38;;;6.97;;
12762;SDS011;6445;52.490;13.378;2024-01-30T02:41:01;11.10;;;7.50;;
12762;SDS011;6445;52.490;13.378;2024-01-30T02:43:27;10.50;;;7.25;;
12762;SDS011;6445;52.490;13.378;2024-01-30T02:45:52;10.85;;;6.72;;
12762;SDS011;6445;52.490;13.378;2024-01-30T02:48:17;10.88;;;6.93;;
12762;SDS011;6445;52.490;13.378;2024-01-30T02:50:42;12.65;;;7.13;;
12762;SDS011;6445;52.490;13.378;2024-01-30T02:53:08;13.73;;;7.32;;
12762;SDS011;6445;52.490;13.378;2024-01-30T02:55:33;13.18;;;7.35;;
12762;SDS011;6445;52.490;13.378;2024-01-30T02:57:58;11.90;;;7.05;;
12762;SDS011;6445;52.490;13.378;2024-01-30T03:00:23;11.00;;;7.05;;
12762;SDS011;6445;52.490;13.378;2024-01-30T03:02:49;12.32;;;7.40;;
12762;SDS011;6445;52.490;13.378;2024-01-30T03:05:14;13.65;;;7.80;;
12762;SDS011;6445;52.490;13.378;2024-01-30T03:07:39;12.32;;;7.18;;
12762;SDS011;6445;52.490;13.378;2024-01-30T03:10:05;13.63;;;7.82;;
12762;SDS011;6445;52.490;13.378;2024-01-30T03:12:31;14.73;;;7.88;;
12762;SDS011;6445;52.490;13.378;2024-01-30T03:14:56;12.80;;;7.82;;
12762;SDS011;6445;52.490;13.378;2024-01-30T03:17:21;12.82;;;7.78;;
12762;SDS011;6445;52.490;13.378;2024-01-30T03:19:47;12.20;;;7.80;;
12762;SDS011;6445;52.490;13.378;2024-01-30T03:22:12;11.88;;;7.60;;
12762;SDS011;6445;52.490;13.378;2024-01-30T03:24:38;12.40;;;7.75;;
12762;SDS011;6445;52.490;13.378;2024-01-30T03:27:03;11.30;;;7.47;;
12762;SDS011;6445;52.490;13.378;2024-01-30T03:29:28;12.75;;;7.70;;
12762;SDS011;6445;52.490;13.378;2024-01-30T03:31:53;13.13;;;7.90;;
12762;SDS011;6445;52.490;13.378;2024-01-30T03:34:19;11.18;;;7.30;;
12762;SDS011;6445;52.490;13.378;2024-01-30T03:36:44;12.55;;;7.47;;
12762;SDS011;6445;52.490;13.378;2024-01-30T03:39:10;14.52;;;7.82;;
12762;SDS011;6445;52.490;13.378;2024-01-30T03:41:35;11.57;;;7.70;;
12762;SDS011;6445;52.490;13.378;2024-01-30T03:44:01;12.00;;;7.63;;
12762;SDS011;6445;52.490;13.378;2024-01-30T03:46:26;14.18;;;7.78;;
12762;SDS011;6445;52.490;13.378;2024-01-30T03:48:51;13.13;;;8.18;;
12762;SDS011;6445;52.490;13.378;2024-01-30T03:51:17;14.13;;;7.63;;
12762;SDS011;6445;52.490;13.378;2024-01-30T03:53:42;12.75;;;7.55;;
12762;SDS011;6445;52.490;13.378;2024-01-30T03:56:08;13.25;;;8.20;;
12762;SDS011;6445;52.490;13.378;2024-01-30T03:58:34;14.95;;;8.60;;
12762;SDS011;6445;52.490;13.378;2024-01-30T04:00:59;13.10;;;8.48;;
12762;SDS011;6445;52.490;13.378;2024-01-30T04:03:25;14.80;;;8.23;;
12762;SDS011;6445;52.490;13.378;2024-01-30T04:05:53;12.80;;;7.70;;
12762;SDS011;6445;52.490;13.378;2024-01-30T04:08:19;12.02;;;8.25;;
12762;SDS011;6445;52.490;13.378;2024-01-30T04:10:44;14.98;;;8.13;;
12762;SDS011;6445;52.490;13.378;2024-01-30T04:13:09;14.27;;;8.35;;
12762;SDS011;6445;52.490;13.378;2024-01-30T04:15:35;16.90;;;8.45;;
12762;SDS011;6445;52.490;13.378;2024-01-30T04:18:00;15.05;;;8.48;;
12762;SDS011;6445;52.490;13.378;2024-01-30T04:20:25;14.73;;;8.20;;
12762;SDS011;6445;52.490;13.378;2024-01-30T04:22:51;14.25;;;8.23;;
12762;SDS011;6445;52.490;13.378;2024-01-30T04:25:16;12.02;;;7.65;;
12762;SDS011;6445;52.490;13.378;2024-01-30T04:27:41;17.50;;;8.90;;
12762;SDS011;6445;52.490;13.378;2024-01-30T04:30:07;11.88;;;7.88;;
12762;SDS011;6445;52.490;13.378;2024-01-30T04:32:32;12.50;;;8.60;;
12762;SDS011;6445;52.490;13.378;2024-01-30T04:34:58;11.20;;;7.60;;
12762;SDS011;6445;52.490;13.378;2024-01-30T04:37:23;14.25;;;8.18;;
12762;SDS011;6445;52.490;13.378;2024-01-30T04:39:48;13.05;;;7.80;;
12762;SDS011;6445;52.490;13.378;2024-01-30T04:42:13;11.18;;;7.63;;
12762;SDS011;6445;52.490;13.378;2024-01-30T04:44:39;13.35;;;8.55;;
12762;SDS011;6445;52.490;13.378;2024-01-30T04:47:04;11.10;;;7.95;;
12762;SDS011;6445;52.490;13.378;2024-01-30T04:49:31;14.45;;;7.85;;
12762;SDS011;6445;52.490;13.378;2024-01-30T04:51:56;13.57;;;7.90;;
12762;SDS011;6445;52.490;13.378;2024-01-30T04:54:21;14.02;;;7.93;;
12762;SDS011;6445;52.490;13.378;2024-01-30T04:56:47;13.50;;;7.70;;
12762;SDS011;6445;52.490;13.378;2024-01-30T04:59:12;13.90;;;10.15;;
12762;SDS011;6445;52.490;13.378;2024-01-30T05:01:37;15.38;;;8.48;;
12762;SDS011;6445;52.490;13.378;2024-01-30T05:04:02;14.20;;;7.63;;
12762;SDS011;6445;52.490;13.378;2024-01-30T05:06:28;11.23;;;7.25;;
12762;SDS011;6445;52.490;13.378;2024-01-30T05:08:54;11.30;;;7.13;;
12762;SDS011;6445;52.490;13.378;2024-01-30T05:11:19;14.60;;;8.13;;
12762;SDS011;6445;52.490;13.378;2024-01-30T05:13:44;16.08;;;8.43;;
12762;SDS011;6445;52.490;13.378;2024-01-30T05:16:10;16.77;;;7.20;;
12762;SDS011;6445;52.490;13.378;2024-01-30T05:18:35;11.95;;;8.18;;
12762;SDS011;6445;52.490;13.378;2024-01-30T05:21:01;14.70;;;7.75;;
12762;SDS011;6445;52.490;13.378;2024-01-30T05:23:27;11.68;;;7.70;;
12762;SDS011;6445;52.490;13.378;2024-01-30T05:25:52;14.02;;;7.55;;
12762;SDS011;6445;52.490;13.378;2024-01-30T05:28:17;11.73;;;7.68;;
12762;SDS011;6445;52.490;13.378;2024-01-30T05:30:43;12.77;;;7.43;;
12762;SDS011;6445;52.490;13.378;2024-01-30T05:33:08;11.85;;;7.57;;
12762;SDS011;6445;52.490;13.378;2024-01-30T05:35:34;14.55;;;8.23;;
12762;SDS011;6445;52.490;13.378;2024-01-30T05:37:59;11.15;;;7.35;;
12762;SDS011;6445;52.490;13.378;2024-01-30T05:40:25;14.55;;;7.75;;
12762;SDS011;6445;52.490;13.378;2024-01-30T05:42:50;11.68;;;7.63;;
12762;SDS011;6445;52.490;13.378;2024-01-30T05:45:15;12.15;;;7.45;;
12762;SDS011;6445;52.490;13.378;2024-01-30T05:47:40;11.50;;;7.78;;
12762;SDS011;6445;52.490;13.378;2024-01-30T05:50:06;15.00;;;8.00;;
12762;SDS011;6445;52.490;13.378;2024-01-30T05:52:32;12.35;;;7.90;;
12762;SDS011;6445;52.490;13.378;2024-01-30T05:54:57;15.27;;;7.80;;
12762;SDS011;6445;52.490;13.378;2024-01-30T05:57:22;15.07;;;7.68;;
12762;SDS011;6445;52.490;13.378;2024-01-30T05:59:47;11.00;;;7.43;;
12762;SDS011;6445;52.490;13.378;2024-01-30T06:02:13;12.10;;;7.70;;
12762;SDS011;6445;52.490;13.378;2024-01-30T06:04:38;12.32;;;7.82;;
12762;SDS011;6445;52.490;13.378;2024-01-30T06:07:04;14.15;;;7.30;;
12762;SDS011;6445;52.490;13.378;2024-01-30T06:09:31;11.77;;;7.72;;
12762;SDS011;6445;52.490;13.378;2024-01-30T06:11:56;11.98;;;7.93;;
12762;SDS011;6445;52.490;13.378;2024-01-30T06:14:21;13.35;;;7.60;;
12762;SDS011;6445;52.490;13.378;2024-01-30T06:16:47;12.45;;;7.70;;
12762;SDS011;6445;52.490;13.378;2024-01-30T06:19:12;16.05;;;8.55;;
12762;SDS011;6445;52.490;13.378;2024-01-30T06:21:37;13.02;;;7.68;;
12762;SDS011;6445;52.490;13.378;2024-01-30T06:24:03;14.18;;;8.73;;
12762;SDS011;6445;52.490;13.378;2024-01-30T06:26:28;15.38;;;7.88;;
12762;SDS011;6445;52.490;13.378;2024-01-30T06:28:54;13.07;;;8.05;;
12762;SDS011;6445;52.490;13.378;2024-01-30T06:31:19;16.50;;;8.27;;
12762;SDS011;6445;52.490;13.378;2024-01-30T06:33:46;13.75;;;8.30;;
12762;SDS011;6445;52.490;13.378;2024-01-30T06:36:12;13.77;;;8.20;;
12762;SDS011;6445;52.490;13.378;2024-01-30T06:38:37;16.13;;;9.35;;
12762;SDS011;6445;52.490;13.378;2024-01-30T06:41:02;11.48;;;8.27;;
12762;SDS011;6445;52.490;13.378;2024-01-30T06:43:28;13.07;;;8.18;;
12762;SDS011;6445;52.490;13.378;2024-01-30T06:45:53;14.05;;;8.65;;
12762;SDS011;6445;52.490;13.378;2024-01-30T06:48:18;12.57;;;8.57;;
12762;SDS011;6445;52.490;13.378;2024-01-30T06:50:43;14.55;;;8.43;;
12762;SDS011;6445;52.490;13.378;2024-01-30T06:53:09;17.27;;;8.25;;
12762;SDS011;6445;52.490;13.378;2024-01-30T06:55:34;15.45;;;8.38;;
12762;SDS011;6445;52.490;13.378;2024-01-30T06:57:59;13.52;;;8.35;;
12762;SDS011;6445;52.490;13.378;2024-01-30T07:00:24;14.85;;;8.93;;
12762;SDS011;6445;52.490;13.378;2024-01-30T07:02:50;16.05;;;8.75;;
12762;SDS011;6445;52.490;13.378;2024-01-30T07:05:15;16.25;;;9.07;;
12762;SDS011;6445;52.490;13.378;2024-01-30T07:07:42;19.08;;;9.05;;
12762;SDS011;6445;52.490;13.378;2024-01-30T07:10:07;13.00;;;8.88;;
12762;SDS011;6445;52.490;13.378;2024-01-30T07:12:33;15.63;;;9.07;;
12762;SDS011;6445;52.490;13.378;2024-01-30T07:14:58;16.42;;;9.40;;
12762;SDS011;6445;52.490;13.378;2024-01-30T07:17:24;19.30;;;9.38;;
12762;SDS011;6445;52.490;13.378;2024-01-30T07:19:49;13.68;;;8.85;;
12762;SDS011;6445;52.490;13.378;2024-01-30T07:22:15;20.45;;;10.45;;
12762;SDS011;6445;52.490;13.378;2024-01-30T07:24:43;16.20;;;8.95;;
12762;SDS011;6445;52.490;13.378;2024-01-30T07:27:13;15.95;;;8.77;;
12762;SDS011;6445;52.490;13.378;2024-01-30T07:29:39;19.42;;;9.32;;
12762;SDS011;6445;52.490;13.378;2024-01-30T07:32:05;13.52;;;8.77;;
12762;SDS011;6445;52.490;13.378;2024-01-30T07:34:30;16.30;;;8.27;;
12762;SDS011;6445;52.490;13.378;2024-01-30T07:36:55;15.45;;;8.60;;
12762;SDS011;6445;52.490;13.378;2024-01-30T07:39:20;15.50;;;8.48;;
12762;SDS011;6445;52.490;13.378;2024-01-30T07:41:46;14.00;;;8.43;;
12762;SDS011;6445;52.490;13.378;2024-01-30T07:44:11;13.38;;;8.75;;
12762;SDS011;6445;52.490;13.378;2024-01-30T07:46:36;19.35;;;9.02;;
12762;SDS011;6445;52.490;13.378;2024-01-30T07:49:02;13.70;;;8.30;;
12762;SDS011;6445;52.490;13.378;2024-01-30T07:51:27;16.73;;;8.98;;
12762;SDS011;6445;52.490;13.378;2024-01-30T07:53:54;12.43;;;8.63;;
12762;SDS011;6445;52.490;13.378;2024-01-30T07:56:19;16.52;;;8.93;;
12762;SDS011;6445;52.490;13.378;2024-01-30T07:58:44;15.73;;;8.73;;
12762;SDS011;6445;52.490;13.378;2024-01-30T08:01:10;13.63;;;8.70;;
12762;SDS011;6445;52.490;13.378;2024-01-30T08:03:35;15.57;;;7.95;;
12762;SDS011;6445;52.490;13.378;2024-01-30T08:06:01;13.90;;;8.48;;
12762;SDS011;6445;52.490;13.378;2024-01-30T08:08:27;14.15;;;8.63;;
12762;SDS011;6445;52.490;13.378;2024-01-30T08:10:53;14.23;;;9.18;;
12762;SDS011;6445;52.490;13.378;2024-01-30T08:13:18;13.32;;;8.40;;
12762;SDS011;6445;52.490;13.378;2024-01-30T08:15:43;15.88;;;8.75;;
12762;SDS011;6445;52.490;13.378;2024-01-30T08:18:09;12.32;;;7.85;;
12762;SDS011;6445;52.490;13.378;2024-01-30T08:20:34;13.75;;;8.00;;
12762;SDS011;6445;52.490;13.378;2024-01-30T08:22:59;16.88;;;9.13;;
12762;SDS011;6445;52.490;13.378;2024-01-30T08:25:25;16.63;;;8.93;;
12762;SDS011;6445;52.490;13.378;2024-01-30T08:27:50;12.73;;;8.98;;
12762;SDS011;6445;52.490;13.378;2024-01-30T08:30:16;14.93;;;8.63;;
12762;SDS011;6445;52.490;13.378;2024-01-30T08:32:41;17.33;;;9.05;;
12762;SDS011;6445;52.490;13.378;2024-01-30T08:35:06;13.57;;;8.15;;
12762;SDS011;6445;52.490;13.378;2024-01-30T08:37:32;16.05;;;8.98;;
12762;SDS011;6445;52.490;13.378;2024-01-30T08:39:57;14.38;;;8.45;;
12762;SDS011;6445;52.490;13.378;2024-01-30T08:42:22;13.77;;;8.43;;
12762;SDS011;6445;52.490;13.378;2024-01-30T08:44:50;17.58;;;8.43;;
12762;SDS011;6445;52.490;13.378;2024-01-30T08:47:17;14.05;;;8.30;;
12762;SDS011;6445;52.490;13.378;2024-01-30T08:49:43;14.82;;;8.65;;
12762;SDS011;6445;52.490;13.378;2024-01-30T08:52:09;13.73;;;8.85;;
12762;SDS011;6445;52.490;13.378;2024-01-30T08:54:37;14.13;;;8.13;;
12762;SDS011;6445;52.490;13.378;2024-01-30T08:57:02;18.35;;;8.60;;
12762;SDS011;6445;52.490;13.378;2024-01-30T08:59:29;13.30;;;7.50;;
12762;SDS011;6445;52.490;13.378;2024-01-30T09:01:54;14.63;;;8.77;;
12762;SDS011;6445;52.490;13.378;2024-01-30T09:04:20;15.55;;;8.85;;
12762;SDS011;6445;52.490;13.378;2024-01-30T09:06:46;14.45;;;8.38;;
12762;SDS011;6445;52.490;13.378;2024-01-30T09:09:11;15.50;;;8.75;;
12762;SDS011;6445;52.490;13.378;2024-01-30T09:11:36;13.70;;;8.02;;
12762;SDS011;6445;52.490;13.378;2024-01-30T09:14:01;17.08;;;8.38;;
12762;SDS011;6445;52.490;13.378;2024-01-30T09:16:27;13.88;;;8.02;;
12762;SDS011;6445;52.490;13.378;2024-01-30T09:18:52;12.52;;;7.32;;
12762;SDS011;6445;52.490;13.378;2024-01-30T09:21:17;13.90;;;7.50;;
12762;SDS011;6445;52.490;13.378;2024-01-30T09:23:42;13.80;;;7.88;;
12762;SDS011;6445;52.490;13.378;2024-01-30T09:26:08;10.52;;;6.88;;
12762;SDS011;6445;52.490;13.378;2024-01-30T09:28:33;10.50;;;7.18;;
12762;SDS011;6445;52.490;13.378;2024-01-30T09:30:58;14.07;;;7.53;;
12762;SDS011;6445;52.490;13.378;2024-01-30T09:33:24;14.23;;;7.47;;
12762;SDS011;6445;52.490;13.378;2024-01-30T09:35:49;10.10;;;7.55;;
12762;SDS011;6445;52.490;13.378;2024-01-30T09:38:14;12.65;;;6.75;;
12762;SDS011;6445;52.490;13.378;2024-01-30T09:40:39;10.68;;;6.90;;
12762;SDS011;6445;52.490;13.378;2024-01-30T09:43:06;14.30;;;7.72;;
12762;SDS011;6445;52.490;13.378;2024-01-30T09:45:32;12.77;;;7.00;;
12762;SDS011;6445;52.490;13.378;2024-01-30T09:47:58;10.82;;;6.97;;
12762;SDS011;6445;52.490;13.378;2024-01-30T09:50:24;9.88;;;7.03;;
12762;SDS011;6445;52.490;13.378;2024-01-30T09:52:49;9.05;;;6.40;;
12762;SDS011;6445;52.490;13.378;2024-01-30T09:55:16;12.07;;;7.07;;
12762;SDS011;6445;52.490;13.378;2024-01-30T09:57:41;13.13;;;7.05;;
12762;SDS011;6445;52.490;13.378;2024-01-30T10:00:07;12.15;;;6.78;;
12762;SDS011;6445;52.490;13.378;2024-01-30T10:02:33;10.82;;;6.75;;
12762;SDS011;6445;52.490;13.378;2024-01-30T10:05:00;12.18;;;6.70;;
12762;SDS011;6445;52.490;13.378;2024-01-30T10:07:26;11.70;;;6.82;;
12762;SDS011;6445;52.490;13.378;2024-01-30T10:09:52;19.15;;;11.35;;
12762;SDS011;6445;52.490;13.378;2024-01-30T10:12:18;10.13;;;6.43;;
12762;SDS011;6445;52.490;13.378;2024-01-30T10:14:43;8.48;;;6.35;;
12762;SDS011;6445;52.490;13.378;2024-01-30T10:17:09;10.48;;;6.35;;
12762;SDS011;6445;52.490;13.378;2024-01-30T10:19:35;9.30;;;6.15;;
12762;SDS011;6445;52.490;13.378;2024-01-30T10:22:01;8.05;;;5.82;;
12762;SDS011;6445;52.490;13.378;2024-01-30T10:24:27;10.02;;;6.28;;
12762;SDS011;6445;52.490;13.378;2024-01-30T10:26:54;14.35;;;6.57;;
12762;SDS011;6445;52.490;13.378;2024-01-30T10:29:20;9.73;;;6.28;;
12762;SDS011;6445;52.490;13.378;2024-01-30T10:31:45;10.75;;;6.28;;
12762;SDS011;6445;52.490;13.378;2024-01-30T10:34:10;12.30;;;6.70;;
12762;SDS011;6445;52.490;13.378;2024-01-30T10:36:39;10.18;;;6.20;;
12762;SDS011;6445;52.490;13.378;2024-01-30T10:39:08;11.95;;;6.40;;
12762;SDS011;6445;52.490;13.378;2024-01-30T10:41:35;11.45;;;6.93;;
12762;SDS011;6445;52.490;13.378;2024-01-30T10:44:08;10.35;;;6.68;;
12762;SDS011;6445;52.490;13.378;2024-01-30T10:46:34;9.10;;;6.85;;
12762;SDS011;6445;52.490;13.378;2024-01-30T10:49:02;8.65;;;6.47;;
12762;SDS011;6445;52.490;13.378;2024-01-30T10:51:29;13.93;;;6.90;;
12762;SDS011;6445;52.490;13.378;2024-01-30T10:53:57;9.38;;;6.20;;
12762;SDS011;6445;52.490;13.378;2024-01-30T10:56:23;8.98;;;6.28;;
12762;SDS011;6445;52.490;13.378;2024-01-30T10:58:49;10.82;;;6.50;;
12762;SDS011;6445;52.490;13.378;2024-01-30T11:01:17;17.65;;;6.70;;
12762;SDS011;6445;52.490;13.378;2024-01-30T11:03:44;11.25;;;6.63;;
12762;SDS011;6445;52.490;13.378;2024-01-30T11:06:10;8.93;;;6.10;;
12762;SDS011;6445;52.490;13.378;2024-01-30T11:08:39;10.50;;;6.40;;
12762;SDS011;6445;52.490;13.378;2024-01-30T11:11:07;9.93;;;6.38;;
12762;SDS011;6445;52.490;13.378;2024-01-30T11:13:34;8.70;;;6.25;;
12762;SDS011;6445;52.490;13.378;2024-01-30T11:16:00;12.48;;;6.47;;
12762;SDS011;6445;52.490;13.378;2024-01-30T11:18:28;10.63;;;6.43;;
12762;SDS011;6445;52.490;13.378;2024-01-30T11:20:59;10.23;;;6.05;;
12762;SDS011;6445;52.490;13.378;2024-01-30T11:23:26;11.18;;;6.18;;
12762;SDS011;6445;52.490;13.378;2024-01-30T11:25:53;11.48;;;6.72;;
12762;SDS011;6445;52.490;13.378;2024-01-30T11:28:18;12.50;;;6.50;;
12762;SDS011;6445;52.490;13.378;2024-01-30T11:30:45;9.93;;;6.75;;
12762;SDS011;6445;52.490;13.378;2024-01-30T11:33:12;11.40;;;6.90;;
12762;SDS011;6445;52.490;13.378;2024-01-30T11:35:40;10.27;;;6.20;;
12762;SDS011;6445;52.490;13.378;2024-01-30T11:38:09;8.88;;;6.40;;
12762;SDS011;6445;52.490;13.378;2024-01-30T11:40:37;11.10;;;6.55;;
12762;SDS011;6445;52.490;13.378;2024-01-30T11:43:03;12.15;;;7.10;;
12762;SDS011;6445;52.490;13.378;2024-01-30T11:45:30;11.15;;;6.60;;
12762;SDS011;6445;52.490;13.378;2024-01-30T11:47:56;9.43;;;6.50;;
12762;SDS011;6445;52.490;13.378;2024-01-30T11:50:22;11.25;;;6.97;;
12762;SDS011;6445;52.490;13.378;2024-01-30T11:52:47;9.93;;;6.60;;
12762;SDS011;6445;52.490;13.378;2024-01-30T11:55:13;13.02;;;6.53;;
12762;SDS011;6445;52.490;13.378;2024-01-30T11:57:40;11.18;;;6.95;;
12762;SDS011;6445;52.490;13.378;2024-01-30T12:00:05;11.88;;;6.95;;
12762;SDS011;6445;52.490;13.378;2024-01-30T12:02:35;11.93;;;6.95;;
12762;SDS011;6445;52.490;13.378;2024-01-30T12:05:04;10.85;;;6.85;;
12762;SDS011;6445;52.490;13.378;2024-01-30T12:07:33;9.73;;;6.40;;
12762;SDS011;6445;52.490;13.378;2024-01-30T12:09:58;15.02;;;7.10;;
12762;SDS011;6445;52.490;13.378;2024-01-30T12:12:28;10.13;;;6.65;;
12762;SDS011;6445;52.490;13.378;2024-01-30T12:14:54;10.32;;;6.95;;
12762;SDS011;6445;52.490;13.378;2024-01-30T12:17:30;10.50;;;6.68;;
12762;SDS011;6445;52.490;13.378;2024-01-30T12:20:03;12.20;;;7.07;;
12762;SDS011;6445;52.490;13.378;2024-01-30T12:22:41;13.85;;;7.10;;
12762;SDS011;6445;52.490;13.378;2024-01-30T12:25:11;10.35;;;6.80;;
12762;SDS011;6445;52.490;13.378;2024-01-30T12:27:44;10.40;;;6.95;;
12762;SDS011;6445;52.490;13.378;2024-01-30T12:30:11;13.88;;;7.18;;
12762;SDS011;6445;52.490;13.378;2024-01-30T12:32:39;11.90;;;6.68;;
12762;SDS011;6445;52.490;13.378;2024-01-30T12:35:11;10.90;;;7.32;;
12762;SDS011;6445;52.490;13.378;2024-01-30T12:37:37;14.38;;;6.97;;
12762;SDS011;6445;52.490;13.378;2024-01-30T12:40:03;11.38;;;6.78;;
12762;SDS011;6445;52.490;13.378;2024-01-30T12:42:29;12.50;;;6.90;;
12762;SDS011;6445;52.490;13.378;2024-01-30T12:44:56;13.13;;;7.50;;
12762;SDS011;6445;52.490;13.378;2024-01-30T12:47:24;11.10;;;7.30;;
12762;SDS011;6445;52.490;13.378;2024-01-30T12:49:50;12.52;;;6.97;;
12762;SDS011;6445;52.490;13.378;2024-01-30T12:52:18;11.38;;;7.00;;
12762;SDS011;6445;52.490;13.378;2024-01-30T12:54:43;8.45;;;6.15;;
12762;SDS011;6445;52.490;13.378;2024-01-30T12:57:09;10.23;;;6.70;;
12762;SDS011;6445;52.490;13.378;2024-01-30T12:59:34;12.55;;;6.78;;
12762;SDS011;6445;52.490;13.378;2024-01-30T13:02:00;11.95;;;6.78;;
12762;SDS011;6445;52.490;13.378;2024-01-30T13:04:27;13.93;;;7.47;;
12762;SDS011;6445;52.490;13.378;2024-01-30T13:06:53;10.82;;;6.38;;
12762;SDS011;6445;52.490;13.378;2024-01-30T13:09:18;9.80;;;6.75;;
12762;SDS011;6445;52.490;13.378;2024-01-30T13:11:44;11.70;;;7.22;;
12762;SDS011;6445;52.490;13.378;2024-01-30T13:14:09;13.38;;;6.75;;
12762;SDS011;6445;52.490;13.378;2024-01-30T13:16:34;8.93;;;6.75;;
12762;SDS011;6445;52.490;13.378;2024-01-30T13:18:59;10.70;;;7.10;;
12762;SDS011;6445;52.490;13.378;2024-01-30T13:21:26;13.10;;;7.53;;
12762;SDS011;6445;52.490;13.378;2024-01-30T13:23:52;12.88;;;7.60;;
12762;SDS011;6445;52.490;13.378;2024-01-30T13:26:19;10.35;;;7.28;;
12762;SDS011;6445;52.490;13.378;2024-01-30T13:28:45;9.75;;;6.65;;
12762;SDS011;6445;52.490;13.378;2024-01-30T13:31:10;11.68;;;7.00;;
12762;SDS011;6445;52.490;13.378;2024-01-30T13:33:35;9.32;;;6.70;;
12762;SDS011;6445;52.490;13.378;2024-01-30T13:36:00;12.02;;;7.28;;
12762;SDS011;6445;52.490;13.378;2024-01-30T13:38:26;9.40;;;6.95;;
12762;SDS011;6445;52.490;13.378;2024-01-30T13:40:51;13.52;;;7.03;;
12762;SDS011;6445;52.490;13.378;2024-01-30T13:43:17;9.73;;;6.53;;
12762;SDS011;6445;52.490;13.378;2024-01-30T13:45:42;9.95;;;6.72;;
12762;SDS011;6445;52.490;13.378;2024-01-30T13:48:08;10.13;;;6.55;;
12762;SDS011;6445;52.490;13.378;2024-01-30T13:50:33;11.70;;;6.75;;
12762;SDS011;6445;52.490;13.378;2024-01-30T13:52:58;10.85;;;6.68;;
12762;SDS011;6445;52.490;13.378;2024-01-30T13:55:24;13.13;;;7.18;;
12762;SDS011;6445;52.490;13.378;2024-01-30T13:57:49;10.45;;;6.88;;
12762;SDS011;6445;52.490;13.378;2024-01-30T14:00:14;10.38;;;6.90;;
12762;SDS011;6445;52.490;13.378;2024-01-30T14:02:41;10.20;;;6.55;;
12762;SDS011;6445;52.490;13.378;2024-01-30T14:05:06;11.50;;;7.32;;
12762;SDS011;6445;52.490;13.378;2024-01-30T14:07:32;11.18;;;7.10;;
12762;SDS011;6445;52.490;13.378;2024-01-30T14:09:57;10.90;;;6.70;;
12762;SDS011;6445;52.490;13.378;2024-01-30T14:12:22;11.02;;;6.65;;
12762;SDS011;6445;52.490;13.378;2024-01-30T14:14:48;9.88;;;6.35;;
12762;SDS011;6445;52.490;13.378;2024-01-30T14:17:13;10.55;;;6.22;;
12762;SDS011;6445;52.490;13.378;2024-01-30T14:19:38;13.23;;;7.28;;
12762;SDS011;6445;52.490;13.378;2024-01-30T14:22:04;14.07;;;6.40;;
12762;SDS011;6445;52.490;13.378;2024-01-30T14:24:29;9.98;;;6.68;;
12762;SDS011;6445;52.490;13.378;2024-01-30T14:26:54;13.02;;;6.45;;